»·PEaware :: UAL460 KLAX-KSFO

UAL460 :: KLAX-KSFO

FLIGHT INFORMATION

Flight Status: Arrived
Operator:
United Airlines
More flights by this operator :: More flights under this callsign
Pilot: Anonymous 15639 (15639)
Aircraft: BOEING 737-800
(B738)
More flights by this aircraft type
Origin: KLAX Los Angeles Intl
United States
Destination: KSFO San Francisco Intl
United States
More flights between these airports :: More routes between these airports
Route: SUMMR1 STOKD SERFR SERFR3
File this flight plan on PilotEdge
Remarks:
Altitude:
(Current/Filed)
38,000ft
Speed:
(Current/Filed)
441kts
Departed: 28-Sep-18 02:27 PM
Arrived: 28-Sep-18 03:20 PM
Distance/Time
Traveled:
293nm/0:52
Distance/Time
To Go:
Arrived

Flight Plot

Page will automatically refresh every two minutes.

Flight plan parsing failed; only flown route is shown


Map Options




Map Legend


Flown Route
Filed Route
Departure Airport
Arrival Airport
Navaid (VOR, NDB)
Fix

Horizontal Profiles

Position Reports

Time Latitude Longitude Heading Altitude Ground
Speed
28-Sep-18 13:51 33.941142 -118.400164 96 135ft 0kts
28-Sep-18 13:52 33.941142 -118.400164 96 135ft 0kts
28-Sep-18 13:53 33.941142 -118.400164 96 135ft 0kts
28-Sep-18 13:54 33.941142 -118.400164 96 135ft 0kts
28-Sep-18 13:55 33.941142 -118.400164 96 135ft 0kts
28-Sep-18 13:56 33.941142 -118.400164 96 135ft 0kts
28-Sep-18 13:57 33.941142 -118.400164 96 135ft 0kts
28-Sep-18 13:58 33.941142 -118.400164 96 135ft 0kts
28-Sep-18 13:59 33.941142 -118.400164 96 135ft 0kts
28-Sep-18 14:00 33.941142 -118.400164 96 135ft 0kts
28-Sep-18 14:01 33.941142 -118.400164 96 135ft 0kts
28-Sep-18 14:02 33.941142 -118.400164 96 135ft 0kts
28-Sep-18 14:03 33.941142 -118.400164 96 135ft 0kts
28-Sep-18 14:04 33.941142 -118.400164 96 135ft 0kts
28-Sep-18 14:05 33.941142 -118.400164 96 135ft 0kts
28-Sep-18 14:06 33.941142 -118.400164 96 135ft 0kts
28-Sep-18 14:07 33.941142 -118.400164 96 135ft 0kts
28-Sep-18 14:08 33.941142 -118.400164 96 135ft 0kts
28-Sep-18 14:09 33.941142 -118.400164 96 135ft 0kts
28-Sep-18 14:10 33.941142 -118.400164 96 135ft 0kts
28-Sep-18 14:11 33.941142 -118.400164 96 135ft 0kts
28-Sep-18 14:12 33.941142 -118.400164 96 135ft 0kts
28-Sep-18 14:13 33.941180 -118.400617 104 135ft 2kts
28-Sep-18 14:14 33.941501 -118.400844 174 135ft 0kts
28-Sep-18 14:15 33.941560 -118.400851 174 135ft 0kts
28-Sep-18 14:16 33.941560 -118.400851 174 135ft 0kts
28-Sep-18 14:17 33.941560 -118.400851 174 135ft 0kts
28-Sep-18 14:18 33.941560 -118.400851 174 135ft 0kts
28-Sep-18 14:19 33.941286 -118.400818 174 135ft 3kts
28-Sep-18 14:20 33.939818 -118.400577 164 135ft 3kts
28-Sep-18 14:21 33.939608 -118.400048 78 135ft 3kts
28-Sep-18 14:22 33.939877 -118.397076 84 135ft 12kts
28-Sep-18 14:23 33.939532 -118.395179 165 135ft 5kts
28-Sep-18 14:24 33.939549 -118.392418 83 135ft 10kts
28-Sep-18 14:25 33.939906 -118.388949 83 135ft 11kts
28-Sep-18 14:26 33.940263 -118.385386 82 135ft 8kts
28-Sep-18 14:27 33.940649 -118.381675 83 135ft 11kts
28-Sep-18 14:28 33.940287 -118.379972 179 135ft 8kts
28-Sep-18 14:29 33.938039 -118.397627 262 135ft 149kts
28-Sep-18 14:30 33.932503 -118.455289 259 2085ft 213kts
28-Sep-18 14:31 33.924966 -118.538536 263 5192ft 266kts
28-Sep-18 14:32 33.917567 -118.629614 263 8761ft 284kts
28-Sep-18 14:33 33.917273 -118.728956 268 11504ft 321kts
28-Sep-18 14:34 33.916850 -118.840216 268 12019ft 341kts
28-Sep-18 14:35 33.920501 -118.955368 269 15514ft 349kts
28-Sep-18 14:36 33.949053 -119.068164 298 18682ft 372kts
28-Sep-18 14:37 34.005440 -119.175048 306 21481ft 389kts
28-Sep-18 14:38 34.092348 -119.257378 321 24016ft 408kts
28-Sep-18 14:39 34.185558 -119.337525 321 26272ft 420kts
28-Sep-18 14:40 34.273587 -119.413498 321 28160ft 431kts
28-Sep-18 14:41 34.371632 -119.498357 321 30055ft 441kts
28-Sep-18 14:42 34.464468 -119.594888 306 31793ft 444kts
28-Sep-18 14:43 34.547641 -119.700687 310 33591ft 451kts
28-Sep-18 14:44 34.634684 -119.807986 310 35671ft 446kts
28-Sep-18 14:45 34.720846 -119.914663 310 37384ft 444kts
28-Sep-18 14:46 34.807203 -120.021946 310 37915ft 442kts
28-Sep-18 14:47 34.892333 -120.128041 310 37935ft 441kts
28-Sep-18 14:48 34.977420 -120.234407 310 37952ft 442kts
28-Sep-18 14:49 35.062417 -120.341007 309 37955ft 442kts
28-Sep-18 14:50 35.148495 -120.441279 313 37939ft 444kts
28-Sep-18 14:51 35.221650 -120.523059 313 37933ft 444kts
28-Sep-18 14:52 35.305964 -120.617785 313 37932ft 444kts
28-Sep-18 14:53 35.396342 -120.719701 312 37931ft 444kts
28-Sep-18 14:54 35.471258 -120.804422 312 37914ft 444kts
28-Sep-18 14:55 35.585643 -120.913122 318 37900ft 448kts
28-Sep-18 14:56 35.684863 -121.005304 318 37901ft 449kts
28-Sep-18 14:57 35.767195 -121.082064 317 37899ft 451kts
28-Sep-18 14:58 35.883008 -121.190403 316 37259ft 454kts
28-Sep-18 14:59 35.965390 -121.267700 316 36455ft 452kts
28-Sep-18 15:00 36.065275 -121.361737 317 35360ft 457kts
28-Sep-18 15:01 36.164316 -121.439682 322 32025ft 463kts
28-Sep-18 15:02 36.246972 -121.504172 322 29555ft 454kts
28-Sep-18 15:03 36.328033 -121.567587 322 27483ft 439kts
28-Sep-18 15:04 36.428007 -121.646077 323 24925ft 423kts
28-Sep-18 15:05 36.525284 -121.722698 323 22417ft 409kts
28-Sep-18 15:06 36.619338 -121.797078 323 20000ft 395kts
28-Sep-18 15:07 36.710140 -121.869122 323 17690ft 383kts
28-Sep-18 15:08 36.808755 -121.913337 345 15488ft 377kts
28-Sep-18 15:09 36.909058 -121.941115 345 13343ft 366kts
28-Sep-18 15:10 37.005075 -121.973375 341 11596ft 345kts
28-Sep-18 15:11 37.092298 -122.007727 343 10619ft 316kts
28-Sep-18 15:12 37.173212 -122.039466 344 9592ft 298kts
28-Sep-18 15:13 37.250909 -122.069923 340 8383ft 291kts
28-Sep-18 15:14 37.325920 -122.099517 345 6828ft 282kts
28-Sep-18 15:15 37.396088 -122.126528 348 5864ft 255kts
28-Sep-18 15:16 37.462153 -122.148882 347 4438ft 236kts
28-Sep-18 15:17 37.521604 -122.169113 342 3265ft 199kts
28-Sep-18 15:18 37.551995 -122.216485 298 2398ft 168kts
28-Sep-18 15:19 37.571713 -122.263182 297 1638ft 142kts
28-Sep-18 15:20 37.589909 -122.306483 296 911ft 135kts
28-Sep-18 15:21 37.607973 -122.349213 295 219ft 140kts
28-Sep-18 15:22 37.618943 -122.376436 274 21ft 22kts
28-Sep-18 15:23 37.618803 -122.379088 232 21ft 0kts
28-Sep-18 15:24 37.618105 -122.379550 175 21ft 8kts
28-Sep-18 15:25 37.615870 -122.380153 209 21ft 7kts
28-Sep-18 15:26 37.615862 -122.382051 289 21ft 7kts
28-Sep-18 15:27 37.615538 -122.382655 224 21ft 0kts
28-Sep-18 15:28 37.615538 -122.382655 224 21ft 0kts
28-Sep-18 15:29 37.615538 -122.382655 224 21ft 0kts
28-Sep-18 15:30 37.615538 -122.382655 224 21ft 0kts

Navigation Log

Ident Type
Flight plan parsing failed, navigation log unavailable